Cedar Hill, New Mexico
Current Conditions -  °F | °C
As of 10:53 PM on Sunday 25 Jan 2015 (Local Time) from KFMN Reporting Station
Clear Clear  
Wind Chill: 23°   Ceiling: Unl
Heat Index: 31°   Visibility: 10mi
Dew Point: 21°   Wind: 9mph
Humidity: 67%   Direction: 90°E
Pressure: 30.32"   Gusts: NA
Location:  36.928°N, 107.996°W
Report Text: KFMN 260553Z AUTO 09008KT 10SM CLR M01/M06 A3032 RMK AO2 SLP287 T10061061 10083 21022 53008
Loading
Personal Weather Stations






























Interactive Weather Map New forecast layout! Learn more

10-Day Weather Forecast

Advertisements
Track Severe Weather on mobile